PWSweather.com
Personal Weather Stations
Station Observations
KKYBOWLI8
Plano, Bowling Green, KY 42104

PlanoBowling Green, KY 42104

Lat: 36.8737103, Lon: -86.4190134

Elevation: 616

Station Type: Davis Vantage Pro2

cumulus.redthreadjournal.net

High Low Average
Temperature 92.1°F33.4°C 70.9°F21.6°C 79.5°F26.4°C
Dew Point 80.1°F26.7°C 70.9°F21.6°C 75.2°F24.0°C
Winds 1.1 mph 1.8 kmh Calm Calm Calm SECalm SE
Wind Gusts 8.0 mph12.9 kmh -- 2.0 mph3.2 kmh
Humidity 100% 59% 88%
Pressure 30.05 in1017.6 mb 29.93 in1013.5 mb -
Precipitation 0.19 in4.8 mm - -
Hour Temp Dew Point Humidity Winds Wind Gusts Pressure Precip Precip Rate Daily Precip Total
12:00 AM 73.1°F22.8°C 73.1°F22.8°C 100% Calm Calm -- 30.00 in1015.9 mb 0.00 in0.0 mm 0.00 in0.0 mm 0.00 in0.0 mm
12:10 AM 73.1°F22.8°C 73.1°F22.8°C 100% Calm Calm -- 30.00 in1015.9 mb 0.00 in0.0 mm 0.00 in0.0 mm 0.00 in0.0 mm
12:20 AM 73.0°F22.8°C 73.0°F22.8°C 100% Calm Calm -- 30.00 in1015.9 mb 0.00 in0.0 mm 0.00 in0.0 mm 0.00 in0.0 mm
12:30 AM 72.8°F22.7°C 72.8°F22.7°C 100% Calm Calm -- 30.00 in1015.9 mb 0.00 in0.0 mm 0.00 in0.0 mm 0.00 in0.0 mm
12:40 AM 72.8°F22.7°C 72.8°F22.7°C 100% Calm Calm -- 30.00 in1015.9 mb 0.00 in0.0 mm 0.00 in0.0 mm 0.00 in0.0 mm
12:50 AM 72.8°F22.7°C 72.8°F22.7°C 100% Calm Calm -- 30.00 in1015.9 mb 0.00 in0.0 mm 0.00 in0.0 mm 0.00 in0.0 mm
01:00 AM 73.0°F22.8°C 73.0°F22.8°C 100% Calm Calm -- 30.00 in1015.9 mb 0.00 in0.0 mm 0.00 in0.0 mm 0.00 in0.0 mm
01:10 AM 73.0°F22.8°C 73.0°F22.8°C 100% Calm Calm -- 30.00 in1015.9 mb 0.00 in0.0 mm 0.00 in0.0 mm 0.00 in0.0 mm
01:20 AM 73.1°F22.8°C 73.1°F22.8°C 100% Calm Calm -- 29.99 in1015.6 mb 0.00 in0.0 mm 0.00 in0.0 mm 0.00 in0.0 mm
01:30 AM 73.3°F22.9°C 73.3°F22.9°C 100% Calm Calm 5.0 mph8.0 kmh 30.00 in1015.9 mb 0.00 in0.0 mm 0.00 in0.0 mm 0.00 in0.0 mm
01:40 AM 73.5°F23.1°C 73.5°F23.1°C 100% Calm Calm -- 30.00 in1015.9 mb 0.00 in0.0 mm 0.00 in0.0 mm 0.00 in0.0 mm
01:50 AM 73.6°F23.1°C 73.6°F23.1°C 100% Calm Calm -- 29.99 in1015.6 mb 0.00 in0.0 mm 0.00 in0.0 mm 0.00 in0.0 mm
02:00 AM 73.6°F23.1°C 73.6°F23.1°C 100% Calm Calm -- 29.99 in1015.6 mb 0.00 in0.0 mm 0.00 in0.0 mm 0.00 in0.0 mm
02:10 AM 73.5°F23.1°C 73.5°F23.1°C 100% Calm Calm -- 29.99 in1015.6 mb 0.00 in0.0 mm 0.00 in0.0 mm 0.00 in0.0 mm
02:20 AM 73.3°F22.9°C 73.3°F22.9°C 100% Calm Calm -- 29.99 in1015.6 mb 0.00 in0.0 mm 0.00 in0.0 mm 0.00 in0.0 mm
02:30 AM 73.3°F22.9°C 73.3°F22.9°C 100% Calm Calm -- 29.99 in1015.6 mb 0.00 in0.0 mm 0.00 in0.0 mm 0.00 in0.0 mm
02:40 AM 73.0°F22.8°C 73.0°F22.8°C 100% Calm Calm -- 29.99 in1015.6 mb 0.00 in0.0 mm 0.00 in0.0 mm 0.00 in0.0 mm
02:50 AM 73.0°F22.8°C 73.0°F22.8°C 100% Calm Calm -- 29.99 in1015.6 mb 0.00 in0.0 mm 0.00 in0.0 mm 0.00 in0.0 mm
03:00 AM 73.0°F22.8°C 73.0°F22.8°C 100% Calm Calm -- 29.98 in1015.2 mb 0.01 in0.3 mm 0.01 in0.3 mm 0.01 in0.3 mm
03:10 AM 73.0°F22.8°C 73.0°F22.8°C 100% Calm Calm -- 29.98 in1015.2 mb 0.01 in0.3 mm 0.00 in0.0 mm 0.01 in0.3 mm
03:20 AM 73.0°F22.8°C 73.0°F22.8°C 100% Calm Calm -- 29.98 in1015.2 mb 0.01 in0.3 mm 0.00 in0.0 mm 0.01 in0.3 mm
03:30 AM 73.0°F22.8°C 73.0°F22.8°C 100% Calm Calm -- 29.98 in1015.2 mb 0.01 in0.3 mm 0.00 in0.0 mm 0.01 in0.3 mm
03:40 AM 72.8°F22.7°C 72.8°F22.7°C 100% Calm Calm -- 29.98 in1015.2 mb 0.01 in0.3 mm 0.00 in0.0 mm 0.01 in0.3 mm
03:50 AM 72.6°F22.6°C 72.6°F22.6°C 100% Calm Calm -- 29.98 in1015.2 mb 0.01 in0.3 mm 0.00 in0.0 mm 0.01 in0.3 mm
04:00 AM 72.4°F22.4°C 72.4°F22.4°C 100% Calm Calm -- 29.98 in1015.2 mb 0.00 in0.0 mm 0.00 in0.0 mm 0.01 in0.3 mm
04:10 AM 72.4°F22.4°C 72.4°F22.4°C 100% Calm Calm -- 29.97 in1014.9 mb 0.00 in0.0 mm 0.00 in0.0 mm 0.01 in0.3 mm
04:20 AM 72.1°F22.3°C 72.1°F22.3°C 100% Calm Calm -- 29.97 in1014.9 mb 0.00 in0.0 mm 0.00 in0.0 mm 0.01 in0.3 mm
04:30 AM 72.1°F22.3°C 72.1°F22.3°C 100% Calm Calm -- 29.98 in1015.2 mb 0.00 in0.0 mm 0.00 in0.0 mm 0.01 in0.3 mm
04:40 AM 72.1°F22.3°C 72.1°F22.3°C 100% Calm Calm -- 29.98 in1015.2 mb 0.00 in0.0 mm 0.00 in0.0 mm 0.01 in0.3 mm
04:50 AM 72.1°F22.3°C 72.1°F22.3°C 100% Calm Calm -- 29.97 in1014.9 mb 0.00 in0.0 mm 0.00 in0.0 mm 0.01 in0.3 mm
05:00 AM 72.1°F22.3°C 72.1°F22.3°C 100% Calm Calm -- 29.98 in1015.2 mb 0.00 in0.0 mm 0.00 in0.0 mm 0.01 in0.3 mm
05:10 AM 72.3°F22.4°C 72.3°F22.4°C 100% Calm Calm 4.0 mph6.4 kmh 29.99 in1015.6 mb 0.00 in0.0 mm 0.00 in0.0 mm 0.01 in0.3 mm
05:20 AM 72.3°F22.4°C 72.3°F22.4°C 100% 0.4 mph WSW0.6 kmh WSW 5.0 mph8.0 kmh 30.00 in1015.9 mb 0.02 in0.5 mm 0.12 in3.0 mm 0.03 in0.8 mm
05:30 AM 72.1°F22.3°C 72.1°F22.3°C 100% 1.0 mph WSW1.6 kmh WSW 7.0 mph11.3 kmh 30.01 in1016.3 mb 0.06 in1.5 mm 0.24 in6.1 mm 0.07 in1.8 mm
05:40 AM 71.8°F22.1°C 71.8°F22.1°C 100% 0.1 mph 0.2 kmh -- 30.00 in1015.9 mb 0.07 in1.8 mm 0.06 in1.5 mm 0.08 in2.0 mm
05:50 AM 71.4°F21.9°C 71.4°F21.9°C 100% Calm Calm -- 30.00 in1015.9 mb 0.07 in1.8 mm 0.00 in0.0 mm 0.08 in2.0 mm
06:00 AM 71.4°F21.9°C 71.4°F21.9°C 100% Calm Calm -- 29.99 in1015.6 mb 0.07 in1.8 mm 0.00 in0.0 mm 0.08 in2.0 mm
06:10 AM 71.4°F21.9°C 71.4°F21.9°C 100% Calm Calm -- 29.99 in1015.6 mb 0.07 in1.8 mm 0.00 in0.0 mm 0.08 in2.0 mm
06:20 AM 71.6°F22.0°C 71.6°F22.0°C 100% Calm Calm -- 29.99 in1015.6 mb 0.05 in1.3 mm 0.00 in0.0 mm 0.08 in2.0 mm
06:30 AM 71.6°F22.0°C 71.6°F22.0°C 100% Calm Calm 1.0 mph1.6 kmh 29.99 in1015.6 mb 0.00 in0.0 mm 0.00 in0.0 mm 0.08 in2.0 mm
06:40 AM 71.6°F22.0°C 71.6°F22.0°C 100% Calm Calm -- 30.00 in1015.9 mb 0.00 in0.0 mm 0.00 in0.0 mm 0.08 in2.0 mm
06:50 AM 71.6°F22.0°C 71.6°F22.0°C 100% Calm Calm 1.0 mph1.6 kmh 30.00 in1015.9 mb 0.00 in0.0 mm 0.00 in0.0 mm 0.08 in2.0 mm
07:00 AM 71.6°F22.0°C 71.6°F22.0°C 100% 0.1 mph NW0.2 kmh NW 7.0 mph11.3 kmh 30.01 in1016.3 mb 0.00 in0.0 mm 0.00 in0.0 mm 0.08 in2.0 mm
07:10 AM 71.4°F21.9°C 71.4°F21.9°C 100% 1.0 mph WNW1.6 kmh WNW 5.0 mph8.0 kmh 30.04 in1017.3 mb 0.01 in0.3 mm 0.06 in1.5 mm 0.09 in2.3 mm
07:20 AM 71.6°F22.0°C 71.6°F22.0°C 100% 1.1 mph NNW1.8 kmh NNW 8.0 mph12.9 kmh 30.04 in1017.3 mb 0.02 in0.5 mm 0.06 in1.5 mm 0.10 in2.5 mm
07:30 AM 71.4°F21.9°C 71.4°F21.9°C 100% 0.6 mph NNE1.0 kmh NNE 2.0 mph3.2 kmh 30.05 in1017.6 mb 0.04 in1.0 mm 0.12 in3.0 mm 0.12 in3.0 mm
07:40 AM 71.2°F21.8°C 71.2°F21.8°C 100% Calm Calm -- 30.04 in1017.3 mb 0.05 in1.3 mm 0.06 in1.5 mm 0.13 in3.3 mm
07:50 AM 71.2°F21.8°C 71.2°F21.8°C 100% Calm Calm -- 30.04 in1017.3 mb 0.06 in1.5 mm 0.06 in1.5 mm 0.14 in3.6 mm
08:00 AM 71.2°F21.8°C 71.2°F21.8°C 100% Calm Calm -- 30.03 in1016.9 mb 0.07 in1.8 mm 0.01 in0.3 mm 0.15 in3.8 mm
08:10 AM 71.2°F21.8°C 71.2°F21.8°C 100% Calm Calm 1.0 mph1.6 kmh 30.03 in1016.9 mb 0.07 in1.8 mm 0.00 in0.0 mm 0.16 in4.1 mm
08:20 AM 71.2°F21.8°C 71.2°F21.8°C 100% Calm Calm 2.0 mph3.2 kmh 30.03 in1016.9 mb 0.07 in1.8 mm 0.00 in0.0 mm 0.17 in4.3 mm
08:30 AM 71.1°F21.7°C 71.1°F21.7°C 100% Calm Calm 3.0 mph4.8 kmh 30.02 in1016.6 mb 0.06 in1.5 mm 0.00 in0.0 mm 0.18 in4.6 mm
08:40 AM 71.1°F21.7°C 71.1°F21.7°C 100% Calm Calm -- 30.03 in1016.9 mb 0.05 in1.3 mm 0.00 in0.0 mm 0.18 in4.6 mm
08:50 AM 71.1°F21.7°C 71.1°F21.7°C 100% Calm Calm 3.0 mph4.8 kmh 30.03 in1016.9 mb 0.05 in1.3 mm 0.00 in0.0 mm 0.19 in4.8 mm
09:00 AM 70.9°F21.6°C 70.9°F21.6°C 100% Calm Calm 2.0 mph3.2 kmh 30.02 in1016.6 mb 0.04 in1.0 mm 0.00 in0.0 mm 0.19 in4.8 mm
09:10 AM 71.1°F21.7°C 71.1°F21.7°C 100% Calm Calm 1.0 mph1.6 kmh 30.03 in1016.9 mb 0.03 in0.8 mm 0.00 in0.0 mm 0.19 in4.8 mm
09:20 AM 71.4°F21.9°C 71.4°F21.9°C 100% Calm Calm 1.0 mph1.6 kmh 30.02 in1016.6 mb 0.02 in0.5 mm 0.00 in0.0 mm 0.19 in4.8 mm
09:30 AM 71.9°F22.2°C 71.9°F22.2°C 100% Calm Calm 3.0 mph4.8 kmh 30.02 in1016.6 mb 0.01 in0.3 mm 0.00 in0.0 mm 0.19 in4.8 mm
09:40 AM 72.6°F22.6°C 72.6°F22.6°C 100% Calm Calm 2.0 mph3.2 kmh 30.02 in1016.6 mb 0.01 in0.3 mm 0.00 in0.0 mm 0.19 in4.8 mm
09:50 AM 73.1°F22.8°C 73.1°F22.8°C 100% Calm Calm 1.0 mph1.6 kmh 30.02 in1016.6 mb 0.00 in0.0 mm 0.00 in0.0 mm 0.19 in4.8 mm
10:00 AM 73.8°F23.2°C 73.8°F23.2°C 100% Calm Calm 1.0 mph1.6 kmh 30.02 in1016.6 mb 0.00 in0.0 mm 0.00 in0.0 mm 0.19 in4.8 mm
10:10 AM 74.7°F23.7°C 74.7°F23.7°C 100% Calm Calm 4.0 mph6.4 kmh 30.02 in1016.6 mb 0.00 in0.0 mm 0.00 in0.0 mm 0.19 in4.8 mm
10:20 AM 75.6°F24.2°C 75.6°F24.2°C 100% Calm Calm 1.0 mph1.6 kmh 30.02 in1016.6 mb 0.00 in0.0 mm 0.00 in0.0 mm 0.19 in4.8 mm
10:30 AM 76.8°F24.9°C 76.8°F24.9°C 100% Calm Calm 4.0 mph6.4 kmh 30.02 in1016.6 mb 0.00 in0.0 mm 0.00 in0.0 mm 0.19 in4.8 mm
10:40 AM 78.8°F26.0°C 77.6°F25.3°C 96% Calm Calm 4.0 mph6.4 kmh 30.03 in1016.9 mb 0.00 in0.0 mm 0.00 in0.0 mm 0.19 in4.8 mm
10:50 AM 80.2°F26.8°C 78.0°F25.6°C 93% Calm Calm 3.0 mph4.8 kmh 30.02 in1016.6 mb 0.00 in0.0 mm 0.00 in0.0 mm 0.19 in4.8 mm
11:00 AM 80.1°F26.7°C 76.6°F24.8°C 89% 0.2 mph S0.3 kmh S 4.0 mph6.4 kmh 30.02 in1016.6 mb 0.00 in0.0 mm 0.00 in0.0 mm 0.19 in4.8 mm
11:10 AM 80.2°F26.8°C 77.7°F25.4°C 92% 1.0 mph SSE1.6 kmh SSE 5.0 mph8.0 kmh 30.02 in1016.6 mb 0.00 in0.0 mm 0.00 in0.0 mm 0.19 in4.8 mm
11:20 AM 80.8°F27.1°C 77.9°F25.5°C 91% 0.1 mph SSE0.2 kmh SSE 2.0 mph3.2 kmh 30.02 in1016.6 mb 0.00 in0.0 mm 0.00 in0.0 mm 0.19 in4.8 mm
11:30 AM 81.5°F27.5°C 77.6°F25.3°C 88% Calm Calm 4.0 mph6.4 kmh 30.02 in1016.6 mb 0.00 in0.0 mm 0.00 in0.0 mm 0.19 in4.8 mm
11:40 AM 82.3°F27.9°C 78.0°F25.6°C 87% 0.5 mph S0.8 kmh S 7.0 mph11.3 kmh 30.02 in1016.6 mb 0.00 in0.0 mm 0.00 in0.0 mm 0.19 in4.8 mm
11:50 AM 83.7°F28.7°C 78.3°F25.7°C 84% 0.5 mph S0.8 kmh S 5.0 mph8.0 kmh 30.01 in1016.3 mb 0.00 in0.0 mm 0.00 in0.0 mm 0.19 in4.8 mm
12:00 PM 84.3°F29.1°C 78.6°F25.9°C 83% 0.1 mph S0.2 kmh S 5.0 mph8.0 kmh 30.01 in1016.3 mb 0.00 in0.0 mm 0.00 in0.0 mm 0.19 in4.8 mm
12:10 PM 85.2°F29.6°C 79.1°F26.2°C 82% Calm Calm 5.0 mph8.0 kmh 30.01 in1016.3 mb 0.00 in0.0 mm 0.00 in0.0 mm 0.19 in4.8 mm
12:20 PM 85.2°F29.6°C 78.3°F25.7°C 80% 0.8 mph S1.3 kmh S 7.0 mph11.3 kmh 30.01 in1016.3 mb 0.00 in0.0 mm 0.00 in0.0 mm 0.19 in4.8 mm
12:30 PM 86.6°F30.3°C 80.1°F26.7°C 81% 0.6 mph SSE1.0 kmh SSE 5.0 mph8.0 kmh 30.00 in1015.9 mb 0.00 in0.0 mm 0.00 in0.0 mm 0.19 in4.8 mm
12:40 PM 88.3°F31.3°C 79.4°F26.3°C 75% Calm Calm 4.0 mph6.4 kmh 30.00 in1015.9 mb 0.00 in0.0 mm 0.00 in0.0 mm 0.19 in4.8 mm
12:50 PM 89.1°F31.7°C 78.9°F26.1°C 72% Calm Calm 4.0 mph6.4 kmh 30.00 in1015.9 mb 0.00 in0.0 mm 0.00 in0.0 mm 0.19 in4.8 mm
01:00 PM 89.6°F32.0°C 78.9°F26.1°C 71% Calm Calm 5.0 mph8.0 kmh 30.00 in1015.9 mb 0.00 in0.0 mm 0.00 in0.0 mm 0.19 in4.8 mm
01:10 PM 90.0°F32.2°C 78.5°F25.8°C 69% Calm Calm 2.0 mph3.2 kmh 30.00 in1015.9 mb 0.00 in0.0 mm 0.00 in0.0 mm 0.19 in4.8 mm
01:20 PM 90.8°F32.7°C 77.9°F25.5°C 66% Calm Calm 6.0 mph9.7 kmh 29.99 in1015.6 mb 0.00 in0.0 mm 0.00 in0.0 mm 0.19 in4.8 mm
01:30 PM 90.8°F32.7°C 78.3°F25.7°C 67% 0.9 mph WSW1.4 kmh WSW 6.0 mph9.7 kmh 29.99 in1015.6 mb 0.00 in0.0 mm 0.00 in0.0 mm 0.19 in4.8 mm
01:40 PM 90.6°F32.6°C 77.2°F25.1°C 65% 0.4 mph WSW0.6 kmh WSW 6.0 mph9.7 kmh 29.99 in1015.6 mb 0.00 in0.0 mm 0.00 in0.0 mm 0.19 in4.8 mm
01:50 PM 90.6°F32.6°C 75.8°F24.3°C 62% 0.3 mph S0.5 kmh S 6.0 mph9.7 kmh 29.99 in1015.6 mb 0.00 in0.0 mm 0.00 in0.0 mm 0.19 in4.8 mm
02:00 PM 90.8°F32.7°C 76.0°F24.4°C 62% 0.7 mph WSW1.1 kmh WSW 8.0 mph12.9 kmh 29.98 in1015.2 mb 0.00 in0.0 mm 0.00 in0.0 mm 0.19 in4.8 mm
02:10 PM 91.9°F33.3°C 78.0°F25.6°C 64% 0.3 mph WSW0.5 kmh WSW 5.0 mph8.0 kmh 29.97 in1014.9 mb 0.00 in0.0 mm 0.00 in0.0 mm 0.19 in4.8 mm
02:20 PM 92.1°F33.4°C 77.2°F25.1°C 62% 0.2 mph WSW0.3 kmh WSW 7.0 mph11.3 kmh 29.97 in1014.9 mb 0.00 in0.0 mm 0.00 in0.0 mm 0.19 in4.8 mm
02:30 PM 91.5°F33.1°C 77.6°F25.3°C 64% 0.3 mph WSW0.5 kmh WSW 5.0 mph8.0 kmh 29.97 in1014.9 mb 0.00 in0.0 mm 0.00 in0.0 mm 0.19 in4.8 mm
02:40 PM 91.3°F32.9°C 77.9°F25.5°C 65% Calm Calm 1.0 mph1.6 kmh 29.96 in1014.6 mb 0.00 in0.0 mm 0.00 in0.0 mm 0.19 in4.8 mm
02:50 PM 91.3°F32.9°C 77.9°F25.5°C 65% Calm Calm 3.0 mph4.8 kmh 29.96 in1014.6 mb 0.00 in0.0 mm 0.00 in0.0 mm 0.19 in4.8 mm
03:00 PM 90.8°F32.7°C 76.9°F24.9°C 64% Calm Calm 4.0 mph6.4 kmh 29.96 in1014.6 mb 0.00 in0.0 mm 0.00 in0.0 mm 0.19 in4.8 mm
03:10 PM 90.2°F32.3°C 78.6°F25.9°C 69% Calm Calm 1.0 mph1.6 kmh 29.96 in1014.6 mb 0.00 in0.0 mm 0.00 in0.0 mm 0.19 in4.8 mm
03:20 PM 90.2°F32.3°C 78.6°F25.9°C 69% Calm Calm 4.0 mph6.4 kmh 29.96 in1014.6 mb 0.00 in0.0 mm 0.00 in0.0 mm 0.19 in4.8 mm
03:30 PM 90.2°F32.3°C 78.6°F25.9°C 69% Calm Calm 4.0 mph6.4 kmh 29.96 in1014.6 mb 0.00 in0.0 mm 0.00 in0.0 mm 0.19 in4.8 mm
03:40 PM 90.4°F32.4°C 78.4°F25.8°C 68% Calm Calm -- 29.96 in1014.6 mb 0.00 in0.0 mm 0.00 in0.0 mm 0.19 in4.8 mm
03:50 PM 90.8°F32.7°C 79.2°F26.2°C 69% Calm Calm 4.0 mph6.4 kmh 29.96 in1014.6 mb 0.00 in0.0 mm 0.00 in0.0 mm 0.19 in4.8 mm
04:00 PM 91.0°F32.8°C 77.6°F25.3°C 65% Calm Calm 2.0 mph3.2 kmh 29.96 in1014.6 mb 0.00 in0.0 mm 0.00 in0.0 mm 0.19 in4.8 mm
04:10 PM 91.0°F32.8°C 78.1°F25.6°C 66% Calm Calm 7.0 mph11.3 kmh 29.96 in1014.6 mb 0.00 in0.0 mm 0.00 in0.0 mm 0.19 in4.8 mm
04:20 PM 90.6°F32.6°C 79.0°F26.1°C 69% 1.0 mph S1.6 kmh S 5.0 mph8.0 kmh 29.96 in1014.6 mb 0.00 in0.0 mm 0.00 in0.0 mm 0.19 in4.8 mm
04:30 PM 91.5°F33.1°C 76.1°F24.5°C 61% Calm Calm 4.0 mph6.4 kmh 29.95 in1014.2 mb 0.00 in0.0 mm 0.00 in0.0 mm 0.19 in4.8 mm
04:40 PM 91.7°F33.2°C 75.3°F24.1°C 59% Calm Calm 2.0 mph3.2 kmh 29.95 in1014.2 mb 0.00 in0.0 mm 0.00 in0.0 mm 0.19 in4.8 mm
04:50 PM 91.0°F32.8°C 76.7°F24.8°C 63% Calm Calm 1.0 mph1.6 kmh 29.95 in1014.2 mb 0.00 in0.0 mm 0.00 in0.0 mm 0.19 in4.8 mm
05:00 PM 91.0°F32.8°C 76.2°F24.6°C 62% Calm Calm 2.0 mph3.2 kmh 29.95 in1014.2 mb 0.00 in0.0 mm 0.00 in0.0 mm 0.19 in4.8 mm
05:10 PM 90.8°F32.7°C 74.5°F23.6°C 59% Calm Calm 1.0 mph1.6 kmh 29.95 in1014.2 mb 0.00 in0.0 mm 0.00 in0.0 mm 0.19 in4.8 mm
05:20 PM 90.4°F32.4°C 75.1°F23.9°C 61% Calm Calm 2.0 mph3.2 kmh 29.95 in1014.2 mb 0.00 in0.0 mm 0.00 in0.0 mm 0.19 in4.8 mm
05:30 PM 89.8°F32.1°C 75.5°F24.2°C 63% Calm Calm 1.0 mph1.6 kmh 29.94 in1013.9 mb 0.00 in0.0 mm 0.00 in0.0 mm 0.19 in4.8 mm
05:40 PM 89.1°F31.7°C 75.8°F24.3°C 65% Calm Calm 1.0 mph1.6 kmh 29.94 in1013.9 mb 0.00 in0.0 mm 0.00 in0.0 mm 0.19 in4.8 mm
05:50 PM 89.1°F31.7°C 77.6°F25.3°C 69% Calm Calm -- 29.94 in1013.9 mb 0.00 in0.0 mm 0.00 in0.0 mm 0.19 in4.8 mm
06:00 PM 88.7°F31.5°C 77.2°F25.1°C 69% Calm Calm -- 29.95 in1014.2 mb 0.00 in0.0 mm 0.00 in0.0 mm 0.19 in4.8 mm
06:10 PM 88.1°F31.2°C 77.1°F25.1°C 70% Calm Calm 1.0 mph1.6 kmh 29.94 in1013.9 mb 0.00 in0.0 mm 0.00 in0.0 mm 0.19 in4.8 mm
06:20 PM 87.5°F30.8°C 77.4°F25.2°C 72% Calm Calm 1.0 mph1.6 kmh 29.94 in1013.9 mb 0.00 in0.0 mm 0.00 in0.0 mm 0.19 in4.8 mm
06:30 PM 86.8°F30.4°C 77.5°F25.3°C 74% Calm Calm 1.0 mph1.6 kmh 29.94 in1013.9 mb 0.00 in0.0 mm 0.00 in0.0 mm 0.19 in4.8 mm
06:40 PM 86.2°F30.1°C 77.7°F25.4°C 76% Calm Calm -- 29.94 in1013.9 mb 0.00 in0.0 mm 0.00 in0.0 mm 0.19 in4.8 mm
06:50 PM 85.6°F29.8°C 77.6°F25.3°C 77% Calm Calm 1.0 mph1.6 kmh 29.93 in1013.5 mb 0.00 in0.0 mm 0.00 in0.0 mm 0.19 in4.8 mm
07:00 PM 85.0°F29.4°C 77.4°F25.2°C 78% Calm Calm 1.0 mph1.6 kmh 29.94 in1013.9 mb 0.00 in0.0 mm 0.00 in0.0 mm 0.19 in4.8 mm
07:10 PM 84.6°F29.2°C 77.0°F25.0°C 78% Calm Calm -- 29.94 in1013.9 mb 0.00 in0.0 mm 0.00 in0.0 mm 0.19 in4.8 mm
07:20 PM 84.4°F29.1°C 77.6°F25.3°C 80% Calm Calm 1.0 mph1.6 kmh 29.95 in1014.2 mb 0.00 in0.0 mm 0.00 in0.0 mm 0.19 in4.8 mm
07:30 PM 83.9°F28.8°C 77.4°F25.2°C 81% Calm Calm -- 29.95 in1014.2 mb 0.00 in0.0 mm 0.00 in0.0 mm 0.19 in4.8 mm
07:40 PM 83.3°F28.5°C 78.0°F25.6°C 84% Calm Calm 1.0 mph1.6 kmh 29.96 in1014.6 mb 0.00 in0.0 mm 0.00 in0.0 mm 0.19 in4.8 mm
07:50 PM 82.7°F28.2°C 77.7°F25.4°C 85% Calm Calm -- 29.95 in1014.2 mb 0.00 in0.0 mm 0.00 in0.0 mm 0.19 in4.8 mm
08:00 PM 82.1°F27.8°C 77.5°F25.3°C 86% Calm Calm -- 29.96 in1014.6 mb 0.00 in0.0 mm 0.00 in0.0 mm 0.19 in4.8 mm
08:10 PM 81.5°F27.5°C 77.6°F25.3°C 88% Calm Calm -- 29.96 in1014.6 mb 0.00 in0.0 mm 0.00 in0.0 mm 0.19 in4.8 mm
08:20 PM 81.0°F27.2°C 77.8°F25.4°C 90% Calm Calm -- 29.96 in1014.6 mb 0.00 in0.0 mm 0.00 in0.0 mm 0.19 in4.8 mm
08:30 PM 80.6°F27.0°C 77.4°F25.2°C 90% Calm Calm -- 29.96 in1014.6 mb 0.00 in0.0 mm 0.00 in0.0 mm 0.19 in4.8 mm
08:40 PM 80.2°F26.8°C 77.7°F25.4°C 92% Calm Calm -- 29.96 in1014.6 mb 0.00 in0.0 mm 0.00 in0.0 mm 0.19 in4.8 mm
08:50 PM 80.1°F26.7°C 77.9°F25.5°C 93% Calm Calm -- 29.97 in1014.9 mb 0.00 in0.0 mm 0.00 in0.0 mm 0.19 in4.8 mm
09:00 PM 79.5°F26.4°C 77.6°F25.3°C 94% Calm Calm -- 29.97 in1014.9 mb 0.00 in0.0 mm 0.00 in0.0 mm 0.19 in4.8 mm
09:10 PM 79.1°F26.2°C 77.9°F25.5°C 96% Calm Calm -- 29.97 in1014.9 mb 0.00 in0.0 mm 0.00 in0.0 mm 0.19 in4.8 mm
09:20 PM 78.8°F26.0°C 77.6°F25.3°C 96% Calm Calm -- 29.98 in1015.2 mb 0.00 in0.0 mm 0.00 in0.0 mm 0.19 in4.8 mm
09:30 PM 78.4°F25.8°C 77.5°F25.3°C 97% Calm Calm -- 29.98 in1015.2 mb 0.00 in0.0 mm 0.00 in0.0 mm 0.19 in4.8 mm
09:40 PM 78.0°F25.6°C 77.4°F25.2°C 98% Calm Calm -- 29.98 in1015.2 mb 0.00 in0.0 mm 0.00 in0.0 mm 0.19 in4.8 mm
09:50 PM 77.9°F25.5°C 77.3°F25.2°C 98% Calm Calm -- 29.97 in1014.9 mb 0.00 in0.0 mm 0.00 in0.0 mm 0.19 in4.8 mm
10:00 PM 77.9°F25.5°C 77.0°F25.0°C 97% Calm Calm 1.0 mph1.6 kmh 29.97 in1014.9 mb 0.00 in0.0 mm 0.00 in0.0 mm 0.19 in4.8 mm
10:10 PM 77.7°F25.4°C 76.8°F24.9°C 97% Calm Calm 1.0 mph1.6 kmh 29.97 in1014.9 mb 0.00 in0.0 mm 0.00 in0.0 mm 0.19 in4.8 mm
10:20 PM 77.5°F25.3°C 76.6°F24.8°C 97% Calm Calm -- 29.97 in1014.9 mb 0.00 in0.0 mm 0.00 in0.0 mm 0.19 in4.8 mm
10:30 PM 77.1°F25.1°C 76.2°F24.6°C 97% Calm Calm 1.0 mph1.6 kmh 29.97 in1014.9 mb 0.00 in0.0 mm 0.00 in0.0 mm 0.19 in4.8 mm
10:40 PM 77.0°F25.0°C 75.8°F24.3°C 96% Calm Calm 1.0 mph1.6 kmh 29.97 in1014.9 mb 0.00 in0.0 mm 0.00 in0.0 mm 0.19 in4.8 mm
10:50 PM 77.0°F25.0°C 75.8°F24.3°C 96% Calm Calm 2.0 mph3.2 kmh 29.98 in1015.2 mb 0.00 in0.0 mm 0.00 in0.0 mm 0.19 in4.8 mm
11:00 PM 77.0°F25.0°C 75.1°F23.9°C 94% Calm Calm 2.0 mph3.2 kmh 29.97 in1014.9 mb 0.00 in0.0 mm 0.00 in0.0 mm 0.19 in4.8 mm
11:10 PM 77.1°F25.1°C 75.2°F24.0°C 94% Calm Calm 5.0 mph8.0 kmh 29.97 in1014.9 mb 0.00 in0.0 mm 0.00 in0.0 mm 0.19 in4.8 mm
11:20 PM 77.0°F25.0°C 74.8°F23.8°C 93% Calm Calm 5.0 mph8.0 kmh 29.97 in1014.9 mb 0.00 in0.0 mm 0.00 in0.0 mm 0.19 in4.8 mm
11:30 PM 77.0°F25.0°C 75.1°F23.9°C 94% Calm Calm 5.0 mph8.0 kmh 29.97 in1014.9 mb 0.00 in0.0 mm 0.00 in0.0 mm 0.19 in4.8 mm
11:40 PM 77.0°F25.0°C 75.1°F23.9°C 94% Calm Calm 3.0 mph4.8 kmh 29.97 in1014.9 mb 0.00 in0.0 mm 0.00 in0.0 mm 0.19 in4.8 mm
11:50 PM 77.0°F25.0°C 75.1°F23.9°C 94% Calm Calm 3.0 mph4.8 kmh 29.97 in1014.9 mb 0.00 in0.0 mm 0.00 in0.0 mm 0.19 in4.8 mm